Time,TemperatureF,DewpointF,PressureIn,WindDirection,WindDirectionDegrees,WindSpeedMPH,WindSpeedGustMPH,Humidity,HourlyPrecipIn,Conditions,Clouds,dailyrainin,SoftwareType,DateUTC
2013-10-21 00:42:00,64.0,42.0,29.84,WSW,248,0.0,0.0,44,0.00,,,0.00,,2013-10-21 07:42:00,
2013-10-21 00:52:00,64.0,42.0,29.85,WSW,248,0.0,0.0,45,0.00,,,0.00,,2013-10-21 07:52:00,
2013-10-21 01:21:00,63.0,42.0,29.85,WSW,248,0.0,0.0,46,0.00,,,0.00,,2013-10-21 08:21:00,
2013-10-21 02:22:00,62.0,43.0,29.85,WSW,248,0.0,0.0,50,0.00,,,0.00,,2013-10-21 09:22:00,
2013-10-21 02:53:00,61.0,43.0,29.84,WSW,248,0.0,0.0,51,0.00,,,0.00,,2013-10-21 09:53:00,
2013-10-21 03:22:00,60.0,42.0,29.84,WSW,248,0.0,0.0,51,0.00,,,0.00,,2013-10-21 10:22:00,
2013-10-21 03:42:00,60.0,43.0,29.84,WSW,248,0.0,0.0,53,0.00,,,0.00,,2013-10-21 10:42:00,
2013-10-21 03:52:00,60.0,43.0,29.84,WSW,248,0.0,0.0,53,0.00,,,0.00,,2013-10-21 10:52:00,
2013-10-21 04:42:00,59.0,42.0,29.85,WSW,248,0.0,0.0,54,0.00,,,0.00,,2013-10-21 11:42:00,
2013-10-21 04:52:00,59.0,42.0,29.85,WSW,248,0.0,0.0,53,0.00,,,0.00,,2013-10-21 11:52:00,
2013-10-21 05:22:00,59.0,42.0,29.85,WSW,248,0.0,0.0,53,0.00,,,0.00,,2013-10-21 12:22:00,
2013-10-21 05:42:00,59.0,41.0,29.85,WSW,248,0.0,0.0,51,0.00,,,0.00,,2013-10-21 12:42:00,
2013-10-21 05:52:00,59.0,40.0,29.86,WSW,248,0.0,0.0,49,0.00,,,0.00,,2013-10-21 12:52:00,
2013-10-21 06:11:00,59.0,39.0,29.85,WSW,248,0.0,0.0,48,0.00,,,0.00,,2013-10-21 13:11:00,
2013-10-21 06:22:00,59.0,39.0,29.86,WSW,248,0.0,0.0,47,0.00,,,0.00,,2013-10-21 13:22:00,
2013-10-21 06:42:00,59.0,38.0,29.86,WSW,248,1.0,3.0,46,0.00,,,0.00,,2013-10-21 13:42:00,
2013-10-21 06:52:00,59.0,38.0,29.86,WSW,248,0.0,0.0,45,0.00,,,0.00,,2013-10-21 13:52:00,
2013-10-21 07:21:00,59.0,39.0,29.87,WSW,248,0.0,0.0,47,0.00,,,0.00,,2013-10-21 14:21:00,
2013-10-21 07:42:00,59.0,38.0,29.88,WSW,248,0.0,0.0,46,0.00,,,0.00,,2013-10-21 14:42:00,
2013-10-21 07:52:00,59.0,38.0,29.89,WSW,248,0.0,0.0,46,0.00,,,0.00,,2013-10-21 14:52:00,
2013-10-21 08:21:00,61.0,41.0,29.90,WSW,248,0.0,0.0,47,0.00,,,0.00,,2013-10-21 15:21:00,
2013-10-21 08:53:00,64.0,38.0,29.91,WSW,248,0.0,0.0,38,0.00,,,0.00,,2013-10-21 15:53:00,
2013-10-21 09:23:00,68.0,39.0,29.91,SE,135,1.0,2.0,35,0.00,,,0.00,,2013-10-21 16:23:00,
2013-10-21 09:43:00,68.0,38.0,29.92,ESE,113,3.0,3.0,33,0.00,,,0.00,,2013-10-21 16:43:00,
2013-10-21 09:53:00,69.0,39.0,29.93,East,90,3.0,5.0,34,0.00,,,0.00,,2013-10-21 16:53:00,
2013-10-21 10:21:00,71.0,39.0,29.93,ENE,68,2.0,5.0,31,0.00,,,0.00,,2013-10-21 17:21:00,
2013-10-21 10:42:00,73.0,38.0,29.93,ENE,68,1.0,2.0,28,0.00,,,0.00,,2013-10-21 17:42:00,
2013-10-21 10:53:00,75.0,39.0,29.93,ENE,68,1.0,3.0,27,0.00,,,0.00,,2013-10-21 17:53:00,
2013-10-21 11:12:00,77.0,38.0,29.93,ENE,68,0.0,1.0,25,0.00,,,0.00,,2013-10-21 18:12:00,
2013-10-21 11:21:00,78.0,40.0,29.93,ENE,68,5.0,5.0,26,0.00,,,0.00,,2013-10-21 18:21:00,
2013-10-21 11:42:00,78.0,41.0,29.93,NE,45,1.0,3.0,27,0.00,,,0.00,,2013-10-21 18:42:00,
2013-10-21 11:52:00,79.0,42.0,29.93,NE,45,0.0,2.0,27,0.00,,,0.00,,2013-10-21 18:52:00,
2013-10-21 12:21:00,82.0,41.0,29.92,NE,45,1.0,2.0,23,0.00,,,0.00,,2013-10-21 19:21:00,
2013-10-21 12:52:00,83.0,39.0,29.91,NE,45,1.0,3.0,21,0.00,,,0.00,,2013-10-21 19:52:00,
2013-10-21 13:21:00,86.0,40.0,29.90,ENE,68,1.0,3.0,20,0.00,,,0.00,,2013-10-21 20:21:00,
2013-10-21 13:52:00,85.0,38.0,29.89,ENE,68,1.0,2.0,19,0.00,,,0.00,,2013-10-21 20:52:00,
2013-10-21 21:54:00,69.0,46.0,29.90,ENE,68,0.0,0.0,44,0.00,,,0.00,,2013-10-22 04:54:00,
2013-10-21 22:22:00,67.0,45.0,29.91,ENE,68,0.0,0.0,45,0.00,,,0.00,,2013-10-22 05:22:00,
2013-10-21 22:52:00,67.0,46.0,29.91,ENE,68,0.0,0.0,46,0.00,,,0.00,,2013-10-22 05:52:00,
2013-10-21 23:12:00,67.0,46.0,29.91,ENE,68,0.0,0.0,47,0.00,,,0.00,,2013-10-22 06:12:00,
2013-10-21 23:53:00,66.0,47.0,29.91,ENE,68,0.0,0.0,50,0.00,,,0.00,,2013-10-22 06:53:00,